Buffalo Niagara International Airport
KBUF : rendu visible

Aérodrome :











RETROUVEZ-NOUS SUR...

 
LOGIN :

S'inscrire | Disclaimer

   EN    FR    IT 

 









Légende :    VFR   VFR Marginal   IFR   IFR Intensif   IFR Très Intensif
Visi : 
Plafond : 
>= 8 km
>= 3000ft
5 à 8 km
1000 à 3000 ft
1500m à 5 km
500 à 1000 ft
800 à 1500m
200 à 500 ft
< 800m
< 200 ft
Symboles :   Orages  Brouillard  Fortes neiges  Fortes précipitations  Vent > 20 kt






- Altitude de l'aérodrome : 728 ft
- Code IATA : BUF


KBUF - Buffalo Niagara International

DERNIER METAR :
  • 222254Z 28011G17KT 10SM BKN040 01/M06 A3003 RMK AO2 SLP176 T00111061 $

METARs EXPIRÉS :
  • 222154Z 29013G18KT 10SM FEW035 BKN042 02/M06 A3000 RMK AO2 SLP165 T00171061 $
  • 222054Z 30014G27KT 10SM FEW035 BKN045 02/M06 A2997 RMK AO2 PK WND 29027/2047 SLP154 T00221061 53022 $

TAF KBUF
Valide du 22 à 21h jusqu'au 23 à 18h UTC


222035Z 2221/2318 28016G24KT P6SM BKN040
FM222300 28014KT P6SM SCT040
FM231200 23009KT P6SM SCT015
FM231600 23012G19KT P6SM SCT120



MET'MAP, la Météo Aéronautique d'un coup d'oeil ! - Copyright ORBIFLY Décembre 2007 - Disclaimer

ORBIFLY MET'MAP TEAM :

Programmation & Développement : Alexandra Zaïnal
Conception & Développement : Baudouin d'Aumeries
Co-Programmation & Développement : Marc-Olivier Méhu
Soutien technique & logistique : Manuel Goepfert

Contact : metmap@orbifly.com




SOURCES & CREDITS :

   NOAA       Earth
Advisory